Aviation Digital Data Service (ADDS)

Output produced by METARs form (1855 UTC 27 September 2016)
found at http://aviationweather.gov/adds/metars/
 
KECG 271720Z 2718/2818 28004KT P6SM VCSH SCT025 OVC050 
     TEMPO 2718/2722 3SM SHRA BR BKN025 
     FM272200 33005KT P6SM -SHRA SCT020 OVC050 
     FM280300 VRB03KT P6SM BKN020 
     FM280700 VRB02KT 2SM BR OVC008 
     FM281300 03004KT 5SM BR OVC025